Date,TemperatureHighF,TemperatureAvgF,TemperatureLowF,DewpointHighF,DewpointAvgF,DewpointLowF,HumidityHigh,HumidityAvg,HumidityLow,PressureMaxIn,PressureMinIn,WindSpeedMaxMPH,WindSpeedAvgMPH,GustSpeedMaxMPH,PrecipitationSumIn
2013-10-1,86.8,82.9,79.7,73.9,72.2,69.6,79,70,62,30.04,29.96,14,4,16,0.00
2013-10-2,82.5,81.1,77.4,77.0,74.0,72.2,92,79,73,30.05,29.97,15,5,16,0.12
2013-10-3,85.8,81.5,77.0,75.8,73.9,71.6,93,78,70,30.06,29.96,15,3,16,0.03
2013-10-4,86.8,82.0,78.7,73.5,71.3,69.1,82,70,58,30.06,29.97,13,2,15,0.00
2013-10-5,87.8,81.0,71.9,73.8,71.3,67.6,92,73,53,30.03,29.91,11,2,13,0.00
2013-10-6,89.2,82.6,75.8,75.2,71.5,67.6,92,70,50,29.97,29.84,10,2,11,0.02
2013-10-7,91.3,81.7,74.9,75.1,71.7,68.3,90,73,50,29.92,29.80,15,3,18,0.27
2013-10-9,81.1,79.3,77.8,74.1,73.4,72.9,85,82,79,29.99,29.94,8,2,10,0.08
2013-10-10,78.0,76.6,75.1,73.9,73.3,72.8,93,89,85,29.99,29.97,10,1,10,0.03
2013-10-11,86.0,81.7,78.0,69.6,67.6,65.8,67,62,54,30.00,29.93,14,4,16,0.01
2013-10-12,85.8,78.2,68.5,71.5,67.6,65.0,94,71,51,30.04,29.96,11,2,15,0.00
2013-10-13,85.6,79.5,72.9,71.7,67.2,62.5,91,67,48,30.07,29.96,12,2,16,0.00
2013-10-14,85.3,78.9,70.1,70.2,68.1,66.4,92,71,56,30.03,29.90,13,2,15,0.01
2013-10-15,85.8,79.0,70.8,72.0,69.6,67.9,94,74,57,29.97,29.86,11,2,15,0.00
2013-10-16,86.0,78.9,72.3,72.8,69.5,67.4,89,74,56,29.97,29.89,12,2,12,0.01
2013-10-17,86.6,80.0,71.5,73.3,71.1,69.1,94,75,58,29.99,29.89,11,2,14,0.00
2013-10-18,86.8,80.5,72.6,74.0,71.3,69.7,93,74,60,30.01,29.90,12,2,14,0.00
2013-10-19,80.5,80.3,80.1,71.7,71.3,71.0,75,74,73,29.97,29.94,8,2,9,0.00
2013-10-22,90.0,85.4,81.6,76.9,75.3,71.5,81,72,56,29.96,29.84,13,4,15,1.06
2013-10-23,87.2,81.3,78.0,76.9,73.3,68.6,92,77,60,29.96,29.82,13,3,13,0.01
2013-10-24,81.4,77.6,74.0,69.4,66.3,63.0,78,68,60,30.10,29.95,13,3,16,0.00
2013-10-25,83.5,77.6,71.5,67.1,64.5,61.9,81,64,51,30.17,30.07,17,4,18,0.00
2013-10-26,82.9,78.0,72.1,65.0,63.5,62.1,74,61,52,30.16,30.05,14,4,16,0.00
2013-10-27,82.5,75.4,67.2,66.1,63.4,61.5,83,67,51,30.12,30.02,15,2,15,0.00
2013-10-28,83.5,78.7,74.7,67.5,64.6,60.4,71,62,47,30.16,30.07,12,4,14,0.01
2013-10-29,84.5,78.9,70.5,69.9,67.0,64.4,87,67,57,30.19,30.09,17,5,19,0.00
2013-10-30,83.4,79.6,76.8,69.2,67.0,64.8,73,66,56,30.20,30.08,18,6,20,0.00
2013-10-31,85.5,80.4,76.7,73.4,70.1,65.4,87,71,59,30.14,29.99,13,4,19,0.11